Time;durP1;ratioP1;P1;durP2;ratioP2;P2;SDS_P1;SDS_P2;PMS_P1;PMS_P2;Temp;Humidity;BMP_temperature;BMP_pressure;BME280_temperature;BME280_humidity;BME280_pressure;Samples;Min_cycle;Max_cycle;Signal;HPM_P1;HPM_P2
2022/05/25 00:00:32;;;;;;;1.83;1.47;;;12.30;99.90;;;;;;6272975;22;20502;-89
2022/05/25 00:03:57;;;;;;;1.40;1.40;;;12.40;99.90;;;;;;6274531;22;20414;-88
2022/05/25 00:07:23;;;;;;;4.13;1.63;;;12.60;99.90;;;;;;6273021;22;20406;-89
2022/05/25 00:10:51;;;;;;;1.67;1.67;;;12.60;99.90;;;;;;6273225;22;20413;-88
2022/05/25 00:14:17;;;;;;;2.10;2.10;;;12.40;99.90;;;;;;6270933;22;20392;-88
2022/05/25 00:17:43;;;;;;;1.40;1.40;;;12.40;99.90;;;;;;6271336;22;21078;-88
2022/05/25 00:21:08;;;;;;;1.57;1.57;;;12.50;99.90;;;;;;6272743;22;21135;-88
2022/05/25 00:24:34;;;;;;;1.33;1.33;;;12.40;99.90;;;;;;6272242;22;20389;-88
2022/05/25 00:27:59;;;;;;;1.73;1.50;;;12.30;99.90;;;;;;6271753;22;20393;-88
2022/05/25 00:31:24;;;;;;;1.30;1.30;;;12.20;99.90;;;;;;6272053;22;20400;-89
2022/05/25 00:34:50;;;;;;;2.20;1.67;;;12.10;99.90;;;;;;6272310;22;20389;-89
2022/05/25 00:38:15;;;;;;;1.87;1.70;;;12.10;99.90;;;;;;6270073;22;20397;-89
2022/05/25 00:41:49;;;;;;;2.20;1.57;;;12.10;99.90;;;;;;6270788;22;20428;-89
2022/05/25 00:45:12;;;;;;;2.90;1.83;;;12.00;99.90;;;;;;6271908;22;20384;-88
2022/05/25 00:48:37;;;;;;;1.70;1.60;;;11.90;99.90;;;;;;6271318;22;20479;-89
2022/05/25 00:52:09;;;;;;;1.73;1.73;;;11.90;99.90;;;;;;6273599;22;20475;-89
2022/05/25 00:55:40;;;;;;;2.30;2.10;;;11.90;99.90;;;;;;6273746;22;20424;-88
2022/05/25 00:58:29;;;;;;;1.97;1.97;;;;;;;;;;6271399;22;20424;-88
2022/05/25 01:00:55;;;;;;;2.30;2.20;;;;;;;;;;6247334;22;20767;-88
2022/05/25 01:03:41;;;;;;;2.27;2.17;;;;;;;;;;6274089;22;20373;-89
2022/05/25 01:07:00;;;;;;;1.43;1.43;;;;;;;;;;6274179;22;20441;-88
2022/05/25 01:10:06;;;;;;;1.97;1.87;;;;;;;;;;6274202;22;20780;-89
2022/05/25 01:12:55;;;;;;;2.20;2.20;;;;;;;;;;6272546;22;20412;-89
2022/05/25 01:15:40;;;;;;;2.37;2.37;;;;;;;;;;6274657;22;20403;-89
2022/05/25 01:19:02;;;;;;;2.80;2.70;;;;;;;;;;6274573;22;20386;-89
2022/05/25 01:22:11;;;;;;;3.07;3.00;;;;;;;;;;6272544;22;20497;-88
2022/05/25 01:25:06;;;;;;;4.77;3.07;;;;;;;;;;6269445;22;20387;-89
2022/05/25 01:28:12;;;;;;;3.33;3.13;;;;;;;;;;6272216;22;20393;-89
2022/05/25 01:31:18;;;;;;;4.40;4.20;;;;;;;;;;6273451;22;20692;-89
2022/05/25 01:34:33;;;;;;;4.87;4.57;;;;;;;;;;6273482;22;20471;-87
2022/05/25 01:37:36;;;;;;;5.00;4.70;;;;;;;;;;6265510;22;20391;-87
2022/05/25 01:40:49;;;;;;;6.47;5.53;;;;;;;;;;6273736;22;20884;-90
2022/05/25 01:43:57;;;;;;;6.00;5.60;;;;;;;;;;6276954;22;20396;-88
2022/05/25 01:47:00;;;;;;;5.07;4.60;;;;;;;;;;6272190;22;20380;-88
2022/05/25 01:50:06;;;;;;;6.27;5.87;;;;;;;;;;6273698;22;20392;-89
2022/05/25 01:53:12;;;;;;;6.43;5.83;;;;;;;;;;6272889;22;20408;-88
2022/05/25 01:56:18;;;;;;;5.33;4.93;;;;;;;;;;6274092;22;20438;-88
2022/05/25 01:59:23;;;;;;;10.00;6.67;;;;;;;;;;6274521;22;20388;-88
2022/05/25 02:05:34;;;;;;;6.43;6.00;;;;;;;;;;6273132;22;20946;-87
2022/05/25 02:08:43;;;;;;;5.80;5.50;;;;;;;;;;6271178;22;20403;-87
2022/05/25 02:11:52;;;;;;;5.40;5.10;;;;;;;;;;6273185;22;20416;-88
2022/05/25 02:14:44;;;;;;;5.97;5.50;;;;;;;;;;6273207;22;20392;-89
2022/05/25 02:17:30;;;;;;;6.33;5.93;;;;;;;;;;6271100;22;20438;-89
2022/05/25 02:20:39;;;;;;;5.90;5.37;;;;;;;;;;6272832;22;20927;-88
2022/05/25 02:23:46;;;;;;;6.57;6.17;;;;;;;;;;6270803;22;20397;-88
2022/05/25 02:26:49;;;;;;;5.77;5.47;;;;;;;;;;6271915;22;20384;-89
2022/05/25 02:29:58;;;;;;;5.80;5.60;;;;;;;;;;6272719;22;20411;-88
2022/05/25 02:33:04;;;;;;;6.50;6.00;;;;;;;;;;6271140;22;20461;-89
2022/05/25 02:36:12;;;;;;;9.53;8.83;;;;;;;;;;6272936;22;20519;-89
2022/05/25 02:39:16;;;;;;;5.50;5.00;;;;;;;;;;6270710;22;20712;-89
2022/05/25 02:42:22;;;;;;;6.53;5.80;;;;;;;;;;6271325;22;20431;-88
2022/05/25 02:45:28;;;;;;;5.60;5.20;;;;;;;;;;6272772;22;20384;-89
2022/05/25 02:48:36;;;;;;;7.97;6.93;;;;;;;;;;6270902;22;20392;-88
2022/05/25 02:51:39;;;;;;;6.03;5.63;;;;;;;;;;6273104;22;20435;-88
2022/05/25 02:54:46;;;;;;;6.47;6.10;;;;;;;;;;6273240;22;20372;-88
2022/05/25 02:57:51;;;;;;;6.50;6.00;;;;;;;;;;6270351;22;20426;-88
2022/05/25 03:00:57;;;;;;;5.90;5.60;;;;;;;;;;6273054;22;20392;-89
2022/05/25 03:04:03;;;;;;;7.97;7.17;;;;;;;;;;6271499;22;20380;-88
2022/05/25 03:07:09;;;;;;;6.43;6.03;;;;;;;;;;6270379;22;20380;-88
2022/05/25 03:10:15;;;;;;;6.97;6.17;;;;;;;;;;6277708;22;21002;-88
2022/05/25 03:13:21;;;;;;;7.40;6.80;;;;;;;;;;6273789;22;20389;-89
2022/05/25 03:16:30;;;;;;;7.80;6.87;;;;;;;;;;6273168;22;20459;-88
2022/05/25 03:19:35;;;;;;;15.20;6.47;;;;;;;;;;6272947;22;20381;-89
2022/05/25 03:22:44;;;;;;;6.73;6.23;;;;;;;;;;6270344;22;20459;-89
2022/05/25 03:25:47;;;;;;;6.63;6.17;;;;;;;;;;6265650;22;21111;-87
2022/05/25 03:28:57;;;;;;;7.67;6.87;;;;;;;;;;6271456;22;20472;-89
2022/05/25 03:32:00;;;;;;;7.43;6.93;;;;;;;;;;6269746;22;20440;-89
2022/05/25 03:35:09;;;;;;;6.67;6.20;;;;;;;;;;6274538;22;20467;-89
2022/05/25 03:38:16;;;;;;;8.37;7.57;;;;;;;;;;6272620;22;20381;-89
2022/05/25 03:41:23;;;;;;;7.00;6.60;;;;;;;;;;6273432;22;20721;-89
2022/05/25 03:44:28;;;;;;;6.77;5.60;;;;;;;;;;6273000;22;20405;-88
2022/05/25 03:47:34;;;;;;;7.37;6.43;;;;;;;;;;6273654;22;20386;-89
2022/05/25 03:50:40;;;;;;;7.00;6.40;;;;;;;;;;6274859;22;20420;-89
2022/05/25 03:53:46;;;;;;;10.90;6.77;;;;;;;;;;6272059;22;20426;-88
2022/05/25 03:56:53;;;;;;;6.50;5.90;;;;;;;;;;6271996;22;20416;-88
2022/05/25 04:00:00;;;;;;;5.93;5.53;;;;;;;;;;6273902;22;20483;-89
2022/05/25 04:03:03;;;;;;;6.67;6.27;;;;;;;;;;6270044;22;20429;-89
2022/05/25 04:06:12;;;;;;;5.87;5.40;;;;;;;;;;6272121;22;20400;-89
2022/05/25 04:09:15;;;;;;;6.37;5.80;;;;;;;;;;6273192;22;20473;-90
2022/05/25 04:12:22;;;;;;;6.67;5.83;;;;;;;;;;6272891;22;20553;-89
2022/05/25 04:15:27;;;;;;;6.63;5.93;;;;;;;;;;6271807;22;20377;-89
2022/05/25 04:18:35;;;;;;;5.87;5.37;;;;;;;;;;6274763;22;20877;-89
2022/05/25 04:21:39;;;;;;;5.67;5.17;;;;;;;;;;6273301;22;20381;-89
2022/05/25 04:24:46;;;;;;;6.30;5.87;;;;;;;;;;6274104;22;20486;-88
2022/05/25 04:27:55;;;;;;;6.50;5.90;;;;;;;;;;6280432;22;20696;-89
2022/05/25 04:31:01;;;;;;;6.67;6.27;;;;;;;;;;6277327;22;20442;-88
2022/05/25 04:34:14;;;;;;;10.37;4.87;;;;;;;;;;6277197;22;20387;-89
2022/05/25 04:40:17;;;;;;;4.73;4.60;;;;;;;;;;6274637;22;20368;-88
2022/05/25 04:43:23;;;;;;;5.50;5.00;;;;;;;;;;6267663;22;20893;-88
2022/05/25 04:46:29;;;;;;;5.20;4.40;;;;;;;;;;6272138;22;20489;-89
2022/05/25 04:49:15;;;;;;;6.83;5.20;;;;;;;;;;6280986;22;20425;-91
2022/05/25 04:51:44;;;;;;;5.17;4.70;;;;;;;;;;6249440;22;20439;-91
2022/05/25 04:54:10;;;;;;;4.90;4.50;;;;;;;;;;6250248;22;20930;-91
2022/05/25 04:59:21;;;;;;;4.07;3.90;;;;;;;;;;6264697;22;20376;-90
2022/05/25 05:01:49;;;;;;;4.97;4.57;;;;;;;;;;6262467;22;20605;-91
2022/05/25 05:04:38;;;;;;;4.57;4.17;;;;;;;;;;6290453;22;20396;-91
2022/05/25 05:07:41;;;;;;;3.87;3.70;;;;;;;;;;6286635;22;20884;-92
2022/05/25 05:10:49;;;;;;;4.67;4.27;;;;;;;;;;6286485;22;20451;-90
2022/05/25 05:13:52;;;;;;;4.27;4.07;;;;;;;;;;6284920;22;20465;-89
2022/05/25 05:16:58;;;;;;;3.73;3.53;;;;;;;;;;6280278;22;20503;-91
2022/05/25 05:20:04;;;;;;;4.77;4.33;;;;;;;;;;6280738;22;20382;-90
2022/05/25 05:23:10;;;;;;;4.53;4.37;;;;;;;;;;6278292;22;20454;-89
2022/05/25 05:26:16;;;;;;;3.90;3.80;;;;;;;;;;6267403;22;20534;-92
2022/05/25 05:29:24;;;;;;;3.90;3.67;;;;;;;;;;6268684;22;20400;-90
2022/05/25 05:32:30;;;;;;;4.40;3.90;;;;;;;;;;6276593;22;20395;-92
2022/05/25 05:35:40;;;;;;;5.97;3.70;;;;;;;;;;6275377;22;20463;-92
2022/05/25 05:38:47;;;;;;;4.97;4.23;;;;;;;;;;6283702;22;20770;-91
2022/05/25 05:41:51;;;;;;;3.73;3.53;;;;;;;;;;6278813;22;20927;-87
2022/05/25 05:45:07;;;;;;;4.43;3.43;;;;;;;;;;6281786;22;20702;-87
2022/05/25 05:48:20;;;;;;;3.20;3.10;;;;;;;;;;6284849;22;20450;-92
2022/05/25 05:51:19;;;;;;;5.23;3.93;;;;;;;;;;6279048;22;20439;-90
2022/05/25 05:54:36;;;;;;;4.00;3.70;;;;;;;;;;6280796;22;20428;-90
2022/05/25 05:57:54;;;;;;;2.63;2.53;;;19.00;99.90;;;;;;6281048;22;20420;-90
2022/05/25 06:01:28;;;;;;;7.33;3.40;;;19.00;99.90;;;;;;6281785;22;20923;-91
2022/05/25 06:04:51;;;;;;;3.33;3.10;;;19.40;99.90;;;;;;6274752;22;20395;-90
2022/05/25 06:08:17;;;;;;;2.93;2.93;;;19.50;99.90;;;;;;6278210;22;21182;-92
2022/05/25 06:11:45;;;;;;;8.40;3.40;;;18.90;99.90;;;;;;6280301;22;20869;-88
2022/05/25 06:22:14;;;;;;;2.60;2.40;;;19.50;99.90;;;;;;6278894;22;20414;-91
2022/05/25 06:25:40;;;;;;;3.83;2.80;;;21.00;99.90;;;;;;6270974;22;20397;-92
2022/05/25 06:29:08;;;;;;;2.90;2.80;;;20.30;99.90;;;;;;6272736;22;20396;-89
2022/05/25 06:32:05;;;;;;;2.37;2.27;;;20.40;99.90;;;;;;6274500;22;20562;-90
2022/05/25 06:35:10;;;;;;;4.13;2.60;;;20.30;99.90;;;;;;6247090;22;20376;-89
2022/05/25 06:38:39;;;;;;;2.40;2.03;;;20.00;99.90;;;;;;6279155;22;20388;-93
2022/05/25 06:42:05;;;;;;;2.33;2.20;;;20.50;99.90;;;;;;6284070;22;20424;-92
2022/05/25 06:45:18;;;;;;;2.50;2.40;;;20.70;99.90;;;;;;6287811;22;20393;-90
2022/05/25 06:48:40;;;;;;;1.80;1.80;;;19.60;99.90;;;;;;6282640;22;20400;-90
2022/05/25 06:55:23;;;;;;;2.33;2.13;;;19.90;99.90;;;;;;6260112;23;20460;-89
2022/05/25 06:57:52;;;;;;;2.27;2.10;;;20.10;99.90;;;;;;6250509;22;20818;-89
2022/05/25 07:00:18;;;;;;;3.10;2.40;;;19.90;99.90;;;;;;6257426;22;20400;-90
2022/05/25 07:05:52;;;;;;;2.60;2.43;;;20.80;99.60;;;;;;6284470;22;20894;-90
2022/05/25 07:08:17;;;;;;;1.97;1.97;;;21.00;98.30;;;;;;6279673;22;20369;-89
2022/05/25 07:10:45;;;;;;;2.03;1.93;;;;;;;;;;6277766;22;20420;-91
2022/05/25 07:13:14;;;;;;;3.17;1.60;;;21.50;96.50;;;;;;6279111;22;20463;-90
2022/05/25 07:15:40;;;;;;;1.57;1.47;;;21.90;95.90;;;;;;6286767;22;20468;-88
2022/05/25 07:18:06;;;;;;;2.20;1.83;;;22.10;94.90;;;;;;6283511;22;20387;-88
2022/05/25 07:20:35;;;;;;;2.13;2.07;;;21.70;94.00;;;;;;6280077;22;20221;-90
2022/05/25 07:23:01;;;;;;;1.73;1.70;;;21.90;93.50;;;;;;6260192;22;20388;-90
2022/05/25 07:25:27;;;;;;;3.60;2.33;;;21.80;92.40;;;;;;6250864;22;20386;-91
2022/05/25 07:27:55;;;;;;;2.77;2.30;;;21.40;92.40;;;;;;6259026;22;20397;-90
2022/05/25 07:30:21;;;;;;;3.97;1.83;;;21.90;91.20;;;;;;6284311;22;20435;-94
2022/05/25 07:32:47;;;;;;;1.67;1.57;;;22.10;91.10;;;;;;6264775;22;20424;-92
2022/05/25 07:35:17;;;;;;;1.67;1.57;;;22.10;89.80;;;;;;6256217;22;20154;-92
2022/05/25 07:37:47;;;;;;;1.83;1.10;;;21.90;88.80;;;;;;6286177;22;20376;-92
2022/05/25 07:40:18;;;;;;;2.20;1.43;;;22.10;89.20;;;;;;6285918;22;20384;-92
2022/05/25 07:42:48;;;;;;;1.43;1.43;;;22.00;86.20;;;;;;6287931;22;20369;-91
2022/05/25 07:45:17;;;;;;;1.97;1.90;;;20.80;84.50;;;;;;6248039;22;20420;-88
2022/05/25 07:48:03;;;;;;;;;;;;;;;;;;;;;
2022/05/25 07:50:38;;;;;;;1.93;1.30;;;22.00;87.30;;;;;;6279881;22;20487;-88
2022/05/25 07:53:55;;;;;;;1.30;1.20;;;23.80;78.90;;;;;;6248480;22;20853;-88
2022/05/25 07:55:54;;;;;;;1.40;1.40;;;24.10;75.70;;;;;;6274768;22;20857;-89
2022/05/25 07:58:22;;;;;;;1.33;1.33;;;24.30;76.30;;;;;;6273456;22;20420;-89
2022/05/25 08:01:09;;;;;;;1.93;1.70;;;23.80;72.10;;;;;;6249489;22;20392;-90
2022/05/25 08:06:19;;;;;;;1.30;1.30;;;23.70;67.10;;;;;;6282758;22;20388;-93
2022/05/25 08:08:45;;;;;;;0.83;0.83;;;24.00;71.20;;;;;;6282245;22;20381;-89
2022/05/25 08:11:16;;;;;;;1.60;1.50;;;24.30;70.10;;;;;;6251606;22;20192;-91
2022/05/25 08:13:45;;;;;;;1.17;1.10;;;24.50;68.60;;;;;;6282370;22;20391;-89
2022/05/25 08:16:12;;;;;;;2.13;1.57;;;25.10;68.60;;;;;;6259821;22;20387;-88
2022/05/25 08:18:38;;;;;;;2.20;1.37;;;25.30;66.30;;;;;;6229214;22;20379;-91
2022/05/25 08:21:05;;;;;;;1.50;1.50;;;24.70;66.50;;;;;;6278890;22;20413;-89
2022/05/25 08:23:32;;;;;;;1.37;1.23;;;25.20;65.50;;;;;;6253351;22;20208;-88
2022/05/25 08:25:57;;;;;;;2.00;1.40;;;24.50;67.50;;;;;;6287769;22;20380;-88
2022/05/25 08:28:23;;;;;;;4.80;3.73;;;24.90;67.00;;;;;;6283747;22;20222;-91
2022/05/25 08:30:49;;;;;;;1.60;1.30;;;24.80;64.70;;;;;;6289126;22;20181;-90
2022/05/25 08:33:21;;;;;;;1.07;1.07;;;25.60;62.70;;;;;;6260807;22;20803;-87
2022/05/25 08:35:49;;;;;;;1.90;1.20;;;25.90;63.30;;;;;;6264060;22;20166;-89
2022/05/25 08:38:15;;;;;;;1.00;1.00;;;25.90;62.20;;;;;;6258918;22;20392;-91
2022/05/25 08:40:46;;;;;;;3.07;0.90;;;25.50;61.90;;;;;;6255352;22;20392;-91
2022/05/25 08:43:24;;;;;;;1.60;1.20;;;24.40;59.30;;;;;;6259357;22;20352;-88
2022/05/25 08:46:05;;;;;;;1.20;1.20;;;23.80;64.00;;;;;;6279332;22;20379;-89
2022/05/25 08:48:34;;;;;;;1.80;0.87;;;24.00;61.60;;;;;;6258716;22;20403;-91
2022/05/25 08:51:06;;;;;;;0.80;0.80;;;23.90;64.00;;;;;;6283176;22;20428;-91
2022/05/25 08:53:33;;;;;;;1.40;1.30;;;23.90;61.80;;;;;;6286288;22;20464;-88
2022/05/25 08:56:15;;;;;;;1.63;0.87;;;24.10;62.00;;;;;;6279250;22;20389;-92
2022/05/25 08:58:46;;;;;;;1.10;1.10;;;24.60;58.70;;;;;;6255508;22;20396;-93
2022/05/25 09:01:20;;;;;;;0.77;0.77;;;24.50;59.80;;;;;;6254032;22;20449;-93
2022/05/25 09:03:51;;;;;;;0.63;0.63;;;24.80;59.00;;;;;;6257692;22;20385;-93
2022/05/25 09:06:35;;;;;;;0.80;0.80;;;24.80;58.80;;;;;;6258694;22;20384;-92
2022/05/25 09:09:24;;;;;;;0.80;0.80;;;25.00;57.00;;;;;;6256933;22;20402;-91
2022/05/25 09:12:01;;;;;;;0.70;0.70;;;25.40;56.40;;;;;;6254561;22;20485;-91
2022/05/25 09:15:07;;;;;;;0.70;0.70;;;25.60;56.50;;;;;;6289744;22;20426;-91
2022/05/25 09:17:40;;;;;;;0.67;0.67;;;25.90;56.20;;;;;;6173858;23;20471;-94
2022/05/25 09:20:28;;;;;;;1.10;1.10;;;25.00;58.20;;;;;;6242001;22;20416;-91
2022/05/25 09:23:33;;;;;;;0.90;0.90;;;24.10;57.50;;;;;;6255894;22;20384;-91
2022/05/25 09:26:59;;;;;;;1.03;1.03;;;24.70;58.60;;;;;;6280835;22;20473;-87
2022/05/25 09:30:24;;;;;;;1.20;0.57;;;25.60;58.50;;;;;;6278786;22;20400;-92
2022/05/25 09:33:59;;;;;;;1.37;0.70;;;26.70;58.30;;;;;;6281395;22;20673;-90
2022/05/25 09:40:39;;;;;;;1.93;1.83;;;24.80;59.80;;;;;;6280989;22;20777;-92
2022/05/25 09:44:10;;;;;;;1.07;0.97;;;24.40;59.80;;;;;;6291439;22;20376;-91
2022/05/25 09:47:58;;;;;;;0.60;0.60;;;24.90;59.90;;;;;;6283548;22;20392;-92
2022/05/25 09:51:28;;;;;;;1.13;1.03;;;25.80;56.50;;;;;;6268894;22;20429;-92
2022/05/25 09:58:40;;;;;;;0.70;0.70;;;26.70;54.30;;;;;;6200443;23;20962;-91
2022/05/25 10:02:17;;;;;;;1.03;1.00;;;27.50;55.40;;;;;;6140794;23;20409;-89
2022/05/25 10:08:53;;;;;;;0.70;0.70;;;27.70;47.00;;;;;;6105677;23;20396;-91
2022/05/25 10:12:26;;;;;;;0.60;0.60;;;27.90;48.70;;;;;;6103144;23;20531;-91
2022/05/25 10:15:16;;;;;;;1.80;0.70;;;27.00;49.10;;;;;;6109320;23;20382;-92
2022/05/25 10:18:44;;;;;;;1.73;1.33;;;26.50;48.60;;;;;;6211177;23;20864;-90
2022/05/25 10:21:45;;;;;;;1.03;1.03;;;28.10;48.40;;;;;;6117656;23;20394;-89
2022/05/25 10:25:22;;;;;;;0.70;0.70;;;27.30;48.20;;;;;;6104455;23;20430;-92
2022/05/25 10:28:51;;;;;;;1.23;1.00;;;26.40;47.50;;;;;;6101756;23;20763;-90
2022/05/25 10:38:59;;;;;;;1.00;1.00;;;27.80;46.70;;;;;;6097829;23;20397;-90
2022/05/25 10:42:23;;;;;;;1.30;1.30;;;26.40;48.80;;;;;;6095357;23;20390;-89
2022/05/25 10:45:51;;;;;;;0.93;0.93;;;27.40;48.30;;;;;;6093501;23;20390;-88
2022/05/25 10:49:06;;;;;;;0.93;0.90;;;26.60;50.30;;;;;;6107872;23;20394;-93
2022/05/25 10:52:23;;;;;;;0.80;0.80;;;26.90;47.90;;;;;;6208404;23;20422;-92
2022/05/25 10:55:38;;;;;;;1.33;0.93;;;27.40;47.60;;;;;;6108451;23;20382;-91
2022/05/25 10:58:42;;;;;;;0.60;0.60;;;26.70;48.50;;;;;;6266698;22;20424;-94
2022/05/25 11:02:34;;;;;;;0.90;0.90;;;25.60;46.50;;;;;;6294981;22;20387;-94
2022/05/25 11:05:45;;;;;;;0.70;0.70;;;25.00;50.30;;;;;;6198362;23;20407;-91
2022/05/25 11:09:37;;;;;;;0.70;0.70;;;25.60;67.70;;;;;;6190726;23;20380;-95
2022/05/25 11:12:53;;;;;;;0.80;0.80;;;26.90;48.40;;;;;;6197215;23;20437;-92
2022/05/25 11:16:07;;;;;;;1.00;0.60;;;26.60;47.90;;;;;;6237279;22;20404;-92
2022/05/25 11:19:19;;;;;;;0.90;0.90;;;26.30;47.50;;;;;;6295542;22;20381;-94
2022/05/25 11:22:36;;;;;;;0.70;0.70;;;25.00;48.50;;;;;;6295305;22;20384;-87
2022/05/25 11:28:41;;;;;;;2.63;0.53;;;25.20;48.10;;;;;;6236235;22;20443;-93
2022/05/25 11:34:55;;;;;;;1.07;0.60;;;24.50;49.00;;;;;;6229467;22;20453;-90
2022/05/25 11:43:23;;;;;;;1.00;0.67;;;24.60;48.50;;;;;;6110536;23;20465;-89
2022/05/25 11:47:06;;;;;;;0.50;0.40;;;26.20;47.90;;;;;;6105134;23;20394;-91
2022/05/25 11:50:32;;;;;;;0.73;0.73;;;27.10;46.80;;;;;;6102695;23;20870;-92
2022/05/25 11:54:10;;;;;;;0.50;0.50;;;27.80;48.00;;;;;;6107441;23;20408;-94
2022/05/25 11:57:21;;;;;;;0.70;0.70;;;28.30;47.40;;;;;;6102629;23;20398;-92
2022/05/25 12:00:55;;;;;;;0.60;0.60;;;27.70;46.80;;;;;;6108312;23;20374;-96
2022/05/25 12:04:27;;;;;;;0.50;0.50;;;27.00;45.40;;;;;;6109162;23;20414;-92
2022/05/25 12:07:13;;;;;;;0.50;0.50;;;29.40;46.60;;;;;;6107619;22;20402;-94
2022/05/25 12:10:51;;;;;;;0.80;0.60;;;28.60;42.50;;;;;;6104889;23;21080;-93
2022/05/25 12:14:13;;;;;;;2.30;0.57;;;29.50;40.50;;;;;;6100556;23;20417;-95
2022/05/25 12:16:44;;;;;;;0.67;0.67;;;26.00;39.10;;;;;;6077374;23;20416;-92
2022/05/25 12:20:39;;;;;;;;;;;;;;;;;;;;;
2022/05/25 12:22:55;;;;;;;0.50;0.50;;;26.80;43.30;;;;;;6114551;23;20473;-91
2022/05/25 12:26:27;;;;;;;1.07;0.90;;;26.80;44.40;;;;;;6088282;23;20378;-94
2022/05/25 12:32:48;;;;;;;;;;;;;;;;;;;;;
2022/05/25 12:36:14;;;;;;;3.20;1.20;;;23.20;46.40;;;;;;6046963;23;20387;-92
2022/05/25 12:39:50;;;;;;;0.97;0.97;;;22.20;44.70;;;;;;6043486;23;20392;-90
2022/05/25 12:43:24;;;;;;;0.73;0.73;;;22.40;46.70;;;;;;6108976;23;20413;-93
2022/05/25 12:50:18;;;;;;;1.47;0.70;;;24.90;45.70;;;;;;6108627;23;20402;-94
2022/05/25 13:06:24;;;;;;;0.47;0.47;;;24.60;44.20;;;;;;6108245;22;20457;-91
2022/05/25 13:09:18;;;;;;;0.90;0.90;;;25.40;44.60;;;;;;6076804;23;20943;-92
2022/05/25 13:12:24;;;;;;;1.57;0.60;;;25.40;44.40;;;;;;6080659;23;20437;-92
2022/05/25 13:15:03;;;;;;;0.80;0.80;;;27.50;44.10;;;;;;6074299;23;20431;-90
2022/05/25 13:17:49;;;;;;;1.43;1.03;;;24.90;44.50;;;;;;6083808;23;20382;-93
2022/05/25 13:20:56;;;;;;;0.60;0.60;;;25.20;45.50;;;;;;6084397;23;20457;-93
2022/05/25 13:23:55;;;;;;;0.67;0.50;;;24.60;45.00;;;;;;6090972;23;20394;-90
2022/05/25 13:27:21;;;;;;;0.40;0.40;;;23.70;44.10;;;;;;6090362;23;20445;-91
2022/05/25 13:29:59;;;;;;;0.60;0.60;;;23.40;44.10;;;;;;6139738;23;20405;-92
2022/05/25 13:32:50;;;;;;;1.57;0.60;;;23.80;44.00;;;;;;6115024;23;20459;-93
2022/05/25 13:35:21;;;;;;;0.60;0.60;;;23.80;42.30;;;;;;6074069;23;20406;-91
2022/05/25 13:38:15;;;;;;;0.70;0.70;;;24.20;43.90;;;;;;6053922;23;20395;-94
2022/05/25 13:41:01;;;;;;;3.33;0.50;;;23.60;44.50;;;;;;6051986;23;20414;-94
2022/05/25 13:43:59;;;;;;;0.87;0.83;;;23.10;45.10;;;;;;6054313;23;20383;-92
2022/05/25 13:46:49;;;;;;;1.33;1.03;;;24.80;45.60;;;;;;6050546;23;20486;-91
2022/05/25 13:49:27;;;;;;;0.90;0.90;;;22.00;46.50;;;;;;6052234;23;20391;-91
2022/05/25 13:52:26;;;;;;;0.70;0.70;;;22.30;46.90;;;;;;6048766;23;20550;-90
2022/05/25 13:58:04;;;;;;;0.53;0.53;;;24.00;44.40;;;;;;6082102;23;20375;-93
2022/05/25 14:00:55;;;;;;;0.80;0.80;;;24.80;43.80;;;;;;6033668;23;20466;-91
2022/05/25 14:04:01;;;;;;;0.70;0.70;;;23.20;45.00;;;;;;6048928;23;20417;-93
2022/05/25 14:07:26;;;;;;;1.47;1.37;;;22.90;45.30;;;;;;6073454;23;20489;-90
2022/05/25 14:10:58;;;;;;;0.63;0.63;;;24.40;45.50;;;;;;6067061;23;20426;-92
2022/05/25 14:14:16;;;;;;;0.90;0.90;;;24.90;44.40;;;;;;6073613;23;20403;-93
2022/05/25 14:17:22;;;;;;;1.03;1.03;;;23.60;43.20;;;;;;6065069;23;20384;-93
2022/05/25 14:20:47;;;;;;;2.10;0.97;;;23.00;45.60;;;;;;6070567;23;20399;-90
2022/05/25 14:24:16;;;;;;;0.70;0.70;;;22.60;46.00;;;;;;6078077;23;20387;-86
2022/05/25 14:27:31;;;;;;;1.00;1.00;;;22.30;45.60;;;;;;6070469;23;20397;-90
2022/05/25 14:30:35;;;;;;;;;;;;;;;;;;;;;
2022/05/25 14:33:45;;;;;;;1.23;1.00;;;23.50;43.10;;;;;;6074635;23;20379;-93
2022/05/25 14:36:34;;;;;;;1.80;1.07;;;23.70;44.00;;;;;;6072048;23;21012;-90
2022/05/25 14:39:01;;;;;;;1.00;1.00;;;23.10;44.40;;;;;;6065749;23;20459;-91
2022/05/25 14:41:48;;;;;;;1.23;0.87;;;23.00;44.80;;;;;;6043840;23;20434;-92
2022/05/25 14:44:53;;;;;;;0.87;0.87;;;22.60;44.70;;;;;;6043291;23;20550;-88
2022/05/25 14:48:28;;;;;;;1.07;1.07;;;22.60;45.70;;;;;;6068398;23;20455;-90
2022/05/25 14:51:57;;;;;;;1.57;1.00;;;22.30;46.10;;;;;;6074806;23;20469;-91
2022/05/25 14:55:18;;;;;;;0.80;0.80;;;22.60;47.30;;;;;;6083871;23;20386;-92
2022/05/25 14:58:18;;;;;;;0.87;0.77;;;22.90;45.20;;;;;;6089683;23;20387;-92
2022/05/25 15:06:39;;;;;;;1.23;0.87;;;22.30;44.40;;;;;;6075996;23;20430;-93
2022/05/25 15:10:09;;;;;;;1.60;1.10;;;23.00;44.50;;;;;;6073535;23;20448;-89
2022/05/25 15:20:10;;;;;;;1.47;1.37;;;20.60;43.60;;;;;;6076046;22;20474;-93
2022/05/25 15:23:19;;;;;;;2.80;1.00;;;20.20;42.80;;;;;;6073069;23;20422;-93
2022/05/25 15:27:00;;;;;;;;;;;;;;;;;;;;;
2022/05/25 15:30:38;;;;;;;2.37;1.40;;;21.30;46.70;;;;;;6101281;23;20473;-90
2022/05/25 15:34:04;;;;;;;0.90;0.90;;;21.90;45.10;;;;;;6116859;23;20433;-94
2022/05/25 15:37:40;;;;;;;0.87;0.87;;;21.40;46.70;;;;;;6111450;23;20722;-93
2022/05/25 15:41:16;;;;;;;1.10;1.10;;;22.10;45.80;;;;;;6108830;23;20868;-92
2022/05/25 15:44:41;;;;;;;0.80;0.80;;;20.50;44.50;;;;;;6105589;23;20386;-91
2022/05/25 15:48:27;;;;;;;15.73;14.23;;;21.70;46.90;;;;;;6105807;23;20967;-91
2022/05/25 15:51:48;;;;;;;0.90;0.90;;;21.70;46.80;;;;;;6069926;23;20530;-92
2022/05/25 15:55:17;;;;;;;1.23;0.80;;;21.60;46.90;;;;;;6076891;23;20379;-92
2022/05/25 15:58:50;;;;;;;1.03;1.00;;;21.70;45.30;;;;;;6068070;23;20390;-91
2022/05/25 16:02:20;;;;;;;1.00;1.00;;;21.70;47.30;;;;;;6069818;23;20399;-93
2022/05/25 16:05:47;;;;;;;1.10;1.00;;;21.60;46.50;;;;;;6072724;23;20526;-91
2022/05/25 16:09:19;;;;;;;2.20;1.13;;;22.00;47.70;;;;;;6070944;23;20532;-92
2022/05/25 16:12:48;;;;;;;0.73;0.73;;;21.60;47.50;;;;;;6072372;23;20450;-92
2022/05/25 16:16:20;;;;;;;0.90;0.90;;;21.50;47.10;;;;;;6069602;23;20405;-91
2022/05/25 16:19:38;;;;;;;2.47;1.00;;;21.40;47.80;;;;;;6067801;23;20435;-93
2022/05/25 16:23:06;;;;;;;0.60;0.60;;;21.30;47.90;;;;;;6074192;23;20727;-91
2022/05/25 16:26:32;;;;;;;2.00;1.03;;;18.40;44.80;;;;;;6063835;23;20727;-91
2022/05/25 16:30:20;;;;;;;1.30;1.20;;;20.90;49.10;;;;;;6066310;23;20407;-91
2022/05/25 16:33:24;;;;;;;2.90;0.77;;;20.60;48.50;;;;;;6068763;23;20533;-91
2022/05/25 16:36:49;;;;;;;1.20;1.10;;;20.90;48.90;;;;;;6070463;23;20402;-90
2022/05/25 16:40:14;;;;;;;1.30;1.30;;;20.40;48.80;;;;;;6071049;23;20395;-90
2022/05/25 16:43:44;;;;;;;1.03;1.03;;;20.60;48.80;;;;;;6073551;23;20426;-90
2022/05/25 16:47:12;;;;;;;1.23;1.20;;;20.10;46.90;;;;;;6062861;23;20462;-90
2022/05/25 16:49:58;;;;;;;1.33;1.33;;;20.60;49.20;;;;;;6057366;23;20442;-86
2022/05/25 16:52:30;;;;;;;3.13;1.20;;;20.40;48.60;;;;;;6058139;23;20441;-87
2022/05/25 16:55:13;;;;;;;0.90;0.90;;;20.40;48.80;;;;;;6056732;23;20162;-87
2022/05/25 16:57:40;;;;;;;3.20;1.17;;;20.40;49.00;;;;;;6004476;23;20778;-86
2022/05/25 17:00:24;;;;;;;2.77;1.10;;;20.50;49.10;;;;;;6029715;23;20883;-86
2022/05/25 17:02:51;;;;;;;1.43;1.43;;;20.50;49.10;;;;;;6062626;23;20441;-87
2022/05/25 17:05:20;;;;;;;1.20;1.20;;;20.20;49.10;;;;;;6028511;23;20452;-85
2022/05/25 17:07:46;;;;;;;1.23;1.17;;;19.20;47.00;;;;;;6055109;23;20449;-87
2022/05/25 17:10:12;;;;;;;1.40;1.23;;;20.20;50.20;;;;;;6054035;23;20382;-87
2022/05/25 17:12:39;;;;;;;1.03;1.03;;;20.10;50.10;;;;;;6057456;23;20394;-86
2022/05/25 17:15:07;;;;;;;1.70;1.57;;;20.20;50.30;;;;;;6030234;23;20399;-86
2022/05/25 17:17:33;;;;;;;1.47;1.30;;;19.50;49.80;;;;;;6010247;23;20415;-87
2022/05/25 17:22:45;;;;;;;2.13;1.70;;;21.20;50.00;;;;;;6034430;23;20318;-86
2022/05/25 17:25:54;;;;;;;1.53;1.53;;;19.70;50.30;;;;;;6024361;23;20451;-86
2022/05/25 17:29:19;;;;;;;1.43;1.20;;;19.60;51.20;;;;;;6056207;23;20169;-87
2022/05/25 17:32:44;;;;;;;2.63;2.43;;;22.50;54.10;;;;;;6060982;23;20490;-85
2022/05/25 17:42:57;;;;;;;1.30;1.30;;;19.30;51.20;;;;;;6057929;23;20389;-87
2022/05/25 17:46:24;;;;;;;3.43;1.40;;;19.80;52.00;;;;;;6055781;23;20391;-87
2022/05/25 17:49:50;;;;;;;10.90;10.17;;;22.00;51.40;;;;;;6052704;23;20406;-87
2022/05/25 17:53:15;;;;;;;0.90;0.90;;;22.30;53.90;;;;;;6054327;23;20453;-90
2022/05/25 17:56:47;;;;;;;1.47;1.47;;;19.40;52.00;;;;;;6057088;23;20402;-87
2022/05/25 18:00:18;;;;;;;1.57;1.57;;;19.40;51.50;;;;;;6062008;23;20418;-87
2022/05/25 18:03:44;;;;;;;2.40;1.10;;;18.80;51.30;;;;;;6055972;23;20917;-88
2022/05/25 18:07:09;;;;;;;3.47;1.57;;;19.10;51.80;;;;;;6057020;23;20708;-87
2022/05/25 18:10:38;;;;;;;1.57;1.47;;;19.10;52.60;;;;;;6056040;23;20505;-88
2022/05/25 18:14:03;;;;;;;2.33;2.17;;;18.90;63.80;;;;;;6054189;23;20901;-88
2022/05/25 18:17:28;;;;;;;1.60;1.47;;;19.00;51.20;;;;;;6057801;23;20162;-88
2022/05/25 18:20:54;;;;;;;1.60;1.10;;;19.10;52.30;;;;;;6058230;23;20733;-88